Time;durP1;ratioP1;P1;durP2;ratioP2;P2;SDS_P1;SDS_P2;PMS_P1;PMS_P2;Temp;Humidity;BMP_temperature;BMP_pressure;BME280_temperature;BME280_humidity;BME280_pressure;Samples;Min_cycle;Max_cycle;Signal;HPM_P1;HPM_P2
2022/11/02 00:00:42;;;;;;;1.77;1.08;;;8.50;99.90;;;;;;4976031;28;20034;-94
2022/11/02 00:03:08;;;;;;;4.80;1.80;;;8.50;99.90;;;;;;4976024;28;20046;-95
2022/11/02 00:05:34;;;;;;;4.15;1.60;;;8.50;99.90;;;;;;4976532;28;20700;-91
2022/11/02 00:08:00;;;;;;;4.15;1.38;;;8.40;99.90;;;;;;4975736;28;20060;-94
2022/11/02 00:10:26;;;;;;;3.67;1.42;;;8.40;99.90;;;;;;4975583;28;20141;-94
2022/11/02 00:12:52;;;;;;;3.53;1.77;;;8.40;99.90;;;;;;4976505;28;20034;-95
2022/11/02 00:15:18;;;;;;;2.55;1.63;;;8.30;99.90;;;;;;4976689;28;20080;-94
2022/11/02 00:17:48;;;;;;;3.90;1.10;;;8.30;99.90;;;;;;4976405;28;20211;-92
2022/11/02 00:20:17;;;;;;;3.83;2.27;;;8.20;99.90;;;;;;4975692;28;20125;-94
2022/11/02 00:22:45;;;;;;;3.97;1.10;;;8.20;99.90;;;;;;4975739;28;20030;-93
2022/11/02 00:25:12;;;;;;;2.33;1.20;;;8.10;99.90;;;;;;4975972;28;20030;-93
2022/11/02 00:27:39;;;;;;;4.47;1.25;;;8.10;99.90;;;;;;4976341;28;20019;-93
2022/11/02 00:30:05;;;;;;;3.88;0.90;;;8.00;99.90;;;;;;4975850;28;20029;-94
2022/11/02 00:32:31;;;;;;;2.58;0.70;;;8.00;99.90;;;;;;4976066;28;20026;-94
2022/11/02 00:34:56;;;;;;;4.68;1.10;;;8.00;99.90;;;;;;4975549;28;20353;-92
2022/11/02 00:37:22;;;;;;;2.78;1.00;;;7.90;99.90;;;;;;4975690;28;20377;-93
2022/11/02 00:39:48;;;;;;;1.73;0.85;;;7.90;99.90;;;;;;4976086;28;20561;-93
2022/11/02 00:42:14;;;;;;;0.73;0.65;;;7.90;99.90;;;;;;4975740;28;20030;-93
2022/11/02 00:44:40;;;;;;;1.65;0.80;;;7.90;99.90;;;;;;4975723;28;20030;-93
2022/11/02 00:47:06;;;;;;;2.90;0.60;;;7.90;99.90;;;;;;4975464;28;20395;-94
2022/11/02 00:49:31;;;;;;;1.85;0.73;;;7.90;99.90;;;;;;4975994;28;20026;-93
2022/11/02 00:51:57;;;;;;;1.52;1.10;;;7.90;99.90;;;;;;4975820;28;20038;-93
2022/11/02 00:54:23;;;;;;;3.95;1.27;;;7.90;99.90;;;;;;4975644;28;20118;-93
2022/11/02 00:56:48;;;;;;;3.90;1.20;;;7.90;99.90;;;;;;4975438;28;20040;-93
2022/11/02 00:59:14;;;;;;;1.08;0.90;;;8.00;99.90;;;;;;4975620;28;20415;-93
2022/11/02 01:01:46;;;;;;;1.63;1.17;;;7.90;99.90;;;;;;4976192;28;20062;-93
2022/11/02 01:04:13;;;;;;;1.77;0.85;;;7.90;99.90;;;;;;4976542;28;20045;-93
2022/11/02 01:06:38;;;;;;;1.80;1.02;;;7.90;99.90;;;;;;4976112;28;20026;-93
2022/11/02 01:09:04;;;;;;;2.72;0.98;;;7.90;99.90;;;;;;4975603;28;20496;-94
2022/11/02 01:11:30;;;;;;;3.67;1.00;;;8.00;99.90;;;;;;4976209;28;20042;-93
2022/11/02 01:13:55;;;;;;;4.45;1.00;;;8.00;99.90;;;;;;4976700;28;20026;-94
2022/11/02 01:16:21;;;;;;;1.60;0.80;;;8.00;99.90;;;;;;4980786;28;20041;-94
2022/11/02 01:18:52;;;;;;;1.25;0.88;;;8.00;99.90;;;;;;4979230;28;20030;-93
2022/11/02 01:21:18;;;;;;;2.42;0.88;;;8.00;99.90;;;;;;4979559;28;20045;-94
2022/11/02 01:23:43;;;;;;;1.10;0.60;;;8.00;99.90;;;;;;4979210;28;20031;-93
2022/11/02 01:26:09;;;;;;;4.10;0.68;;;8.00;99.90;;;;;;4979482;28;20030;-94
2022/11/02 01:28:35;;;;;;;2.03;0.85;;;8.00;99.90;;;;;;4979067;28;20049;-93
2022/11/02 01:31:02;;;;;;;2.38;0.50;;;8.00;99.90;;;;;;4978443;28;20026;-93
2022/11/02 01:33:28;;;;;;;2.35;0.70;;;8.00;99.90;;;;;;4978995;28;20032;-93
2022/11/02 01:35:55;;;;;;;4.22;0.82;;;8.00;99.90;;;;;;4978769;28;20140;-93
2022/11/02 01:38:21;;;;;;;1.55;0.88;;;8.00;99.90;;;;;;4978893;28;20030;-92
2022/11/02 01:40:47;;;;;;;2.95;1.20;;;8.00;99.90;;;;;;4978564;28;20042;-94
2022/11/02 01:43:30;;;;;;;4.55;1.30;;;7.90;99.90;;;;;;4978637;28;20492;-92
2022/11/02 01:46:11;;;;;;;4.70;1.60;;;8.00;99.90;;;;;;4978262;28;20030;-93
2022/11/02 01:48:42;;;;;;;;;;;8.00;99.90;;;;;;4979049;28;20388;-93
2022/11/02 01:51:21;;;;;;;3.80;1.98;;;8.00;99.90;;;;;;4979123;28;19905;-93
2022/11/02 01:53:49;;;;;;;4.43;2.28;;;8.00;99.90;;;;;;4978392;28;20121;-93
2022/11/02 01:56:18;;;;;;;6.43;2.15;;;8.00;99.90;;;;;;4978525;28;20038;-92
2022/11/02 01:58:49;;;;;;;5.07;1.77;;;8.00;99.90;;;;;;4978645;28;20034;-93
2022/11/02 02:01:14;;;;;;;6.50;1.48;;;8.00;99.90;;;;;;4977898;28;20041;-93
2022/11/02 02:03:41;;;;;;;6.53;1.20;;;8.00;99.90;;;;;;4995536;28;20427;-93
2022/11/02 02:06:11;;;;;;;4.05;1.10;;;8.00;99.90;;;;;;4978659;28;20027;-92
2022/11/02 02:08:42;;;;;;;12.07;2.97;;;8.00;99.90;;;;;;4978376;28;20061;-94
2022/11/02 02:11:28;;;;;;;9.00;1.60;;;7.90;99.90;;;;;;4978325;28;20034;-93
2022/11/02 02:13:57;;;;;;;5.03;1.20;;;7.90;99.90;;;;;;4978336;28;20041;-93
2022/11/02 02:16:31;;;;;;;3.70;1.00;;;7.90;99.90;;;;;;4977962;28;20023;-93
2022/11/02 02:19:03;;;;;;;8.50;1.20;;;7.90;99.90;;;;;;4978456;28;20042;-93
2022/11/02 02:22:27;;;;;;;6.22;0.90;;;7.90;99.90;;;;;;4977796;28;20038;-93
2022/11/02 02:25:13;;;;;;;10.98;1.23;;;7.90;99.90;;;;;;4954652;28;20050;-93
2022/11/02 02:27:59;;;;;;;7.35;1.55;;;7.80;99.90;;;;;;4938346;28;20027;-94
2022/11/02 02:30:27;;;;;;;7.22;1.55;;;7.80;99.90;;;;;;4938293;29;20145;-91
2022/11/02 02:33:03;;;;;;;9.75;2.92;;;7.80;99.90;;;;;;4953650;29;20060;-90
2022/11/02 02:35:40;;;;;;;6.78;1.02;;;7.80;99.90;;;;;;4954090;28;20039;-93
2022/11/02 02:38:22;;;;;;;6.60;1.25;;;7.70;99.90;;;;;;4946246;29;20024;-93
2022/11/02 02:40:56;;;;;;;6.60;1.30;;;7.70;99.90;;;;;;4918328;29;20553;-94
2022/11/02 02:43:37;;;;;;;7.68;1.80;;;7.70;99.90;;;;;;4918922;29;20027;-92
2022/11/02 02:46:08;;;;;;;10.18;0.93;;;7.70;99.90;;;;;;4918957;29;20130;-93
2022/11/02 02:48:36;;;;;;;10.48;1.10;;;7.70;99.90;;;;;;4919378;29;20160;-92
2022/11/02 02:51:06;;;;;;;6.55;1.15;;;7.70;99.90;;;;;;4919070;29;20035;-92
2022/11/02 02:53:45;;;;;;;8.55;1.13;;;7.70;99.90;;;;;;4934742;29;20048;-93
2022/11/02 02:56:14;;;;;;;4.72;1.20;;;7.60;99.90;;;;;;4934654;29;20027;-92
2022/11/02 02:59:02;;;;;;;12.07;1.13;;;7.60;99.90;;;;;;4935506;29;20036;-92
2022/11/02 03:01:27;;;;;;;12.88;1.70;;;7.60;99.90;;;;;;4987551;28;20516;-93
2022/11/02 03:03:53;;;;;;;10.18;1.45;;;7.60;99.90;;;;;;4977385;28;20034;-94
2022/11/02 03:06:23;;;;;;;9.40;1.33;;;7.60;99.90;;;;;;4977309;28;20034;-94
2022/11/02 03:09:08;;;;;;;12.60;1.17;;;7.50;99.90;;;;;;4977289;28;20476;-93
2022/11/02 03:11:40;;;;;;;10.05;1.23;;;7.50;99.90;;;;;;4977181;28;20543;-93
2022/11/02 03:14:25;;;;;;;5.40;1.27;;;7.50;99.90;;;;;;4977435;28;20031;-93
2022/11/02 03:17:09;;;;;;;16.92;2.35;;;7.50;99.90;;;;;;4976908;28;20142;-93
2022/11/02 03:20:03;;;;;;;10.32;1.20;;;7.50;99.90;;;;;;4977314;28;20030;-93
2022/11/02 03:22:55;;;;;;;11.73;1.77;;;7.40;99.90;;;;;;4977022;28;20073;-93
2022/11/02 03:25:38;;;;;;;12.18;1.33;;;7.50;99.90;;;;;;4969007;28;20030;-95
2022/11/02 03:28:13;;;;;;;12.85;1.88;;;7.40;99.90;;;;;;4977317;28;20495;-93
2022/11/02 03:30:45;;;;;;;16.80;2.72;;;7.50;99.90;;;;;;4977318;28;20027;-94
2022/11/02 03:33:29;;;;;;;11.75;1.50;;;7.40;99.90;;;;;;4994623;28;20037;-93
2022/11/02 03:36:00;;;;;;;18.45;1.77;;;7.40;99.90;;;;;;4977095;28;20023;-93
2022/11/02 03:39:04;;;;;;;9.00;1.70;;;7.40;99.90;;;;;;4976615;28;20049;-93
2022/11/02 03:41:31;;;;;;;15.02;1.63;;;7.40;99.90;;;;;;4964045;28;20097;-94
2022/11/02 03:44:07;;;;;;;5.70;1.42;;;7.40;99.90;;;;;;4976241;28;20035;-94
2022/11/02 03:46:37;;;;;;;7.53;0.93;;;7.40;99.90;;;;;;4976681;28;20576;-94
2022/11/02 03:49:09;;;;;;;12.43;2.70;;;7.40;99.90;;;;;;4976523;28;20033;-93
2022/11/02 03:51:38;;;;;;;9.13;1.50;;;7.50;99.90;;;;;;4976630;28;20031;-94
2022/11/02 03:54:30;;;;;;;13.98;1.52;;;7.50;99.90;;;;;;4976674;28;20428;-94
2022/11/02 03:57:02;;;;;;;10.10;1.17;;;7.40;99.90;;;;;;4976166;28;20045;-93
2022/11/02 03:59:31;;;;;;;5.63;1.02;;;7.40;99.90;;;;;;4976226;28;20050;-94
2022/11/02 04:01:58;;;;;;;6.30;1.20;;;7.40;99.90;;;;;;4976140;28;20050;-93
2022/11/02 04:04:24;;;;;;;10.60;1.23;;;7.30;99.90;;;;;;4976194;28;20088;-92
2022/11/02 04:06:51;;;;;;;5.10;1.25;;;7.40;99.90;;;;;;4976263;28;20026;-93
2022/11/02 04:09:17;;;;;;;12.32;1.30;;;7.30;99.90;;;;;;4976307;28;20022;-94
2022/11/02 04:14:39;;;;;;;6.97;1.40;;;7.30;99.90;;;;;;4993618;28;20109;-93
2022/11/02 04:19:52;;;;;;;7.30;1.45;;;7.20;99.90;;;;;;4993293;28;20056;-93
2022/11/02 04:25:17;;;;;;;11.45;3.05;;;7.20;99.90;;;;;;4992003;28;20034;-93
2022/11/02 04:27:46;;;;;;;7.75;1.45;;;7.20;99.90;;;;;;4976283;28;20026;-94
2022/11/02 04:30:13;;;;;;;8.20;1.17;;;7.10;99.90;;;;;;4975974;28;20036;-94
2022/11/02 04:35:25;;;;;;;16.27;1.52;;;7.10;99.90;;;;;;4994570;28;20579;-94
2022/11/02 04:40:35;;;;;;;9.02;1.17;;;7.00;99.90;;;;;;4994677;28;20112;-94
2022/11/02 04:43:01;;;;;;;5.68;0.90;;;7.00;99.90;;;;;;4981491;28;20456;-94
2022/11/02 04:45:26;;;;;;;7.72;2.65;;;7.00;99.90;;;;;;4978169;28;20035;-93
2022/11/02 04:47:52;;;;;;;9.63;1.35;;;7.00;99.90;;;;;;4977902;28;20029;-93
2022/11/02 04:50:18;;;;;;;11.38;1.63;;;7.00;99.90;;;;;;4975553;28;20477;-93
2022/11/02 04:52:44;;;;;;;10.60;1.50;;;7.00;99.90;;;;;;4981000;28;20023;-94
2022/11/02 04:55:10;;;;;;;13.95;1.50;;;7.00;99.90;;;;;;4979475;28;20043;-94
2022/11/02 04:57:36;;;;;;;10.13;1.67;;;7.00;99.90;;;;;;4979402;28;20026;-94
2022/11/02 05:00:02;;;;;;;10.63;1.02;;;7.00;99.90;;;;;;4979594;28;20030;-93
2022/11/02 05:02:28;;;;;;;7.15;1.10;;;7.00;99.90;;;;;;4979898;28;20522;-92
2022/11/02 05:04:54;;;;;;;12.55;1.20;;;7.00;99.90;;;;;;4979563;28;20109;-94
2022/11/02 05:07:19;;;;;;;7.88;1.10;;;6.90;99.90;;;;;;4980046;28;20038;-94
2022/11/02 05:09:45;;;;;;;14.98;1.30;;;6.90;99.90;;;;;;4979883;28;20400;-94
2022/11/02 05:12:11;;;;;;;9.07;1.20;;;6.90;99.90;;;;;;4979768;28;20054;-93
2022/11/02 05:14:36;;;;;;;5.20;1.27;;;6.90;99.90;;;;;;4979517;28;20031;-94
2022/11/02 05:17:02;;;;;;;5.53;0.95;;;6.90;99.90;;;;;;4979666;28;20026;-93
2022/11/02 05:19:28;;;;;;;6.63;1.10;;;6.90;99.90;;;;;;4979654;28;20130;-94
2022/11/02 05:21:53;;;;;;;7.18;1.15;;;6.90;99.90;;;;;;4979351;28;20034;-94
2022/11/02 05:24:19;;;;;;;7.55;0.88;;;6.90;99.90;;;;;;4979088;28;20034;-93
2022/11/02 05:26:47;;;;;;;7.30;1.23;;;6.90;99.90;;;;;;4978871;28;20501;-93
2022/11/02 05:29:12;;;;;;;8.77;0.93;;;7.00;99.90;;;;;;4979302;28;20030;-93
2022/11/02 05:31:38;;;;;;;9.13;2.53;;;7.00;99.90;;;;;;4979453;28;20088;-93
2022/11/02 05:34:03;;;;;;;11.20;2.33;;;7.00;99.90;;;;;;4979205;28;20038;-92
2022/11/02 05:36:29;;;;;;;9.40;1.20;;;7.00;99.90;;;;;;4979488;28;20360;-95
2022/11/02 05:38:55;;;;;;;12.30;1.65;;;7.00;99.90;;;;;;4979512;28;20209;-93
2022/11/02 05:41:21;;;;;;;11.50;1.45;;;7.00;99.90;;;;;;4978650;28;20045;-94
2022/11/02 05:43:47;;;;;;;8.73;1.20;;;7.00;99.90;;;;;;4979825;28;20118;-94
2022/11/02 05:46:13;;;;;;;8.35;1.20;;;7.00;99.90;;;;;;4979727;28;20058;-93
2022/11/02 05:48:40;;;;;;;7.75;1.15;;;7.00;99.90;;;;;;4979602;28;20035;-95
2022/11/02 05:51:06;;;;;;;7.85;1.25;;;6.90;99.90;;;;;;4979481;28;20097;-93
2022/11/02 05:53:33;;;;;;;9.60;1.15;;;6.90;99.90;;;;;;4979603;28;20026;-94
2022/11/02 05:56:00;;;;;;;12.90;1.55;;;6.90;99.90;;;;;;4979114;28;20035;-94
2022/11/02 05:58:26;;;;;;;11.23;1.65;;;7.00;99.90;;;;;;4978668;28;20659;-92
2022/11/02 06:00:52;;;;;;;7.40;1.10;;;7.00;99.90;;;;;;4979207;28;20034;-93
2022/11/02 06:03:18;;;;;;;10.60;1.45;;;7.00;99.90;;;;;;4978571;28;20074;-94
2022/11/02 06:05:44;;;;;;;9.95;1.58;;;7.00;99.90;;;;;;4979133;28;20030;-93
2022/11/02 06:08:10;;;;;;;20.75;1.98;;;7.00;99.90;;;;;;4978942;28;20042;-94
2022/11/02 06:10:36;;;;;;;10.00;1.35;;;7.00;99.90;;;;;;4979152;28;20094;-93
2022/11/02 06:13:02;;;;;;;7.63;1.00;;;7.00;99.90;;;;;;4978770;28;20026;-93
2022/11/02 06:15:31;;;;;;;13.68;1.40;;;7.00;99.90;;;;;;4978910;28;20066;-94
2022/11/02 06:17:56;;;;;;;8.45;1.27;;;7.00;99.90;;;;;;4979373;28;20053;-94
2022/11/02 06:20:22;;;;;;;14.98;1.88;;;7.00;99.90;;;;;;4979757;28;20476;-93
2022/11/02 06:22:48;;;;;;;10.20;1.30;;;7.00;99.90;;;;;;4979494;28;20037;-94
2022/11/02 06:25:15;;;;;;;15.55;1.50;;;7.00;99.90;;;;;;4979328;28;20029;-93
2022/11/02 06:27:41;;;;;;;9.00;1.27;;;6.90;99.90;;;;;;4978812;28;20634;-94
2022/11/02 06:30:07;;;;;;;7.30;1.05;;;6.90;99.90;;;;;;4978779;28;20031;-95
2022/11/02 06:32:34;;;;;;;9.32;1.38;;;6.90;99.90;;;;;;4978423;28;20037;-94
2022/11/02 06:34:59;;;;;;;6.75;0.95;;;6.90;99.90;;;;;;4978684;28;20026;-93
2022/11/02 06:37:25;;;;;;;7.95;1.10;;;6.90;99.90;;;;;;4978476;28;20101;-93
2022/11/02 06:39:51;;;;;;;10.48;1.08;;;6.80;99.90;;;;;;4978925;28;20049;-93
2022/11/02 06:42:16;;;;;;;11.80;1.73;;;6.80;99.90;;;;;;4979649;28;20030;-95
2022/11/02 06:44:42;;;;;;;7.95;1.08;;;6.70;99.90;;;;;;4979416;28;20042;-94
2022/11/02 06:47:08;;;;;;;9.23;0.90;;;6.70;99.90;;;;;;4979010;28;20022;-95
2022/11/02 06:49:33;;;;;;;7.28;1.23;;;6.70;99.90;;;;;;4979334;28;20077;-93
2022/11/02 06:51:59;;;;;;;16.02;1.48;;;6.70;99.90;;;;;;4978183;28;20034;-95
2022/11/02 06:54:25;;;;;;;6.50;0.80;;;6.70;99.90;;;;;;4975091;28;20038;-92
2022/11/02 06:56:50;;;;;;;9.25;1.30;;;6.70;99.90;;;;;;5004631;28;20034;-95
2022/11/02 06:59:16;;;;;;;8.45;1.25;;;6.70;99.90;;;;;;4977876;28;20018;-93
2022/11/02 07:01:42;;;;;;;7.00;0.80;;;6.70;99.90;;;;;;4976511;28;20042;-94
2022/11/02 07:04:07;;;;;;;10.77;1.77;;;6.70;99.90;;;;;;4976542;28;20111;-93
2022/11/02 07:06:33;;;;;;;12.93;1.33;;;6.60;99.90;;;;;;4977331;28;20058;-94
2022/11/02 07:09:02;;;;;;;17.17;1.90;;;6.60;99.90;;;;;;4977729;28;20060;-94
2022/11/02 07:11:28;;;;;;;15.35;1.90;;;6.60;99.90;;;;;;4994803;28;21365;-94
2022/11/02 07:13:54;;;;;;;7.55;1.08;;;6.60;99.90;;;;;;4988225;28;20073;-95
2022/11/02 07:16:19;;;;;;;12.05;1.23;;;6.60;99.90;;;;;;4977397;28;20031;-93
2022/11/02 07:18:45;;;;;;;9.98;1.13;;;6.60;99.90;;;;;;4976827;28;20030;-91
2022/11/02 07:21:11;;;;;;;6.60;1.02;;;6.60;99.90;;;;;;4978397;28;20293;-93
2022/11/02 07:23:37;;;;;;;9.25;1.40;;;6.70;99.90;;;;;;4976662;28;20066;-94
2022/11/02 07:26:03;;;;;;;15.98;1.10;;;6.80;99.90;;;;;;4975623;28;20482;-93
2022/11/02 07:28:29;;;;;;;12.82;1.50;;;6.70;99.90;;;;;;4978686;28;20026;-95
2022/11/02 07:30:55;;;;;;;11.85;1.40;;;6.80;99.90;;;;;;4978465;28;20030;-95
2022/11/02 07:33:21;;;;;;;5.40;0.77;;;6.90;99.90;;;;;;4977533;28;20030;-93
2022/11/02 07:35:47;;;;;;;8.05;1.50;;;6.90;99.90;;;;;;4972697;28;20030;-93
2022/11/02 07:38:13;;;;;;;6.65;1.10;;;7.00;99.90;;;;;;4977654;28;20447;-95
2022/11/02 07:40:38;;;;;;;13.27;1.55;;;7.00;99.90;;;;;;4977167;28;20038;-94
2022/11/02 07:43:05;;;;;;;14.38;1.70;;;7.00;99.90;;;;;;4978805;28;20498;-94
2022/11/02 07:45:32;;;;;;;8.30;1.05;;;7.10;99.90;;;;;;4975355;28;20022;-95
2022/11/02 07:47:57;;;;;;;11.40;1.13;;;7.00;99.90;;;;;;4965386;28;20023;-94
2022/11/02 07:50:25;;;;;;;10.30;1.20;;;7.10;99.90;;;;;;4992400;28;20030;-95
2022/11/02 07:52:57;;;;;;;8.25;1.10;;;7.10;99.90;;;;;;4968374;28;20475;-94
2022/11/02 07:55:25;;;;;;;12.73;1.02;;;7.20;99.90;;;;;;4968979;28;20380;-94
2022/11/02 07:57:53;;;;;;;7.15;1.02;;;7.20;99.90;;;;;;4966745;28;20026;-94
2022/11/02 08:00:20;;;;;;;5.90;1.00;;;7.20;99.90;;;;;;4967246;28;20051;-95
2022/11/02 08:02:46;;;;;;;5.75;1.05;;;7.20;99.90;;;;;;4958445;28;20086;-94
2022/11/02 08:05:11;;;;;;;9.80;2.05;;;7.30;99.90;;;;;;4960925;28;20117;-93
2022/11/02 08:07:37;;;;;;;10.60;1.52;;;7.30;99.90;;;;;;4977245;28;20061;-94
2022/11/02 08:10:03;;;;;;;9.10;1.33;;;7.30;99.90;;;;;;4978424;28;20090;-93
2022/11/02 08:12:29;;;;;;;11.80;1.73;;;7.30;99.90;;;;;;4978163;28;20098;-95
2022/11/02 08:14:56;;;;;;;10.25;1.70;;;7.30;99.90;;;;;;4978953;28;20026;-94
2022/11/02 08:17:23;;;;;;;5.30;0.80;;;7.40;99.90;;;;;;4984392;28;20026;-93
2022/11/02 08:19:49;;;;;;;8.95;1.25;;;7.40;99.90;;;;;;4966484;28;20198;-94
2022/11/02 08:22:14;;;;;;;9.18;1.95;;;7.40;99.90;;;;;;4956188;28;20483;-93
2022/11/02 08:24:40;;;;;;;6.63;1.17;;;7.50;99.90;;;;;;4967456;28;20418;-94
2022/11/02 08:27:05;;;;;;;5.38;0.93;;;7.60;99.90;;;;;;4967236;28;20089;-92
2022/11/02 08:29:31;;;;;;;8.55;1.13;;;7.60;99.90;;;;;;4958638;28;20051;-93
2022/11/02 08:31:57;;;;;;;11.20;1.40;;;7.70;99.90;;;;;;4958457;28;20366;-94
2022/11/02 08:34:22;;;;;;;11.70;1.95;;;7.80;99.90;;;;;;4958048;28;20121;-93
2022/11/02 08:36:48;;;;;;;12.43;1.75;;;7.90;99.90;;;;;;4962998;28;20022;-94
2022/11/02 08:39:14;;;;;;;12.30;1.33;;;7.90;99.90;;;;;;4973858;28;20505;-93
2022/11/02 08:41:39;;;;;;;10.43;1.30;;;8.00;99.90;;;;;;4965479;28;20519;-94
2022/11/02 08:44:05;;;;;;;9.52;1.90;;;8.00;99.90;;;;;;4967401;28;20022;-94
2022/11/02 08:46:31;;;;;;;6.28;1.00;;;8.10;99.90;;;;;;4967140;28;20518;-93
2022/11/02 08:48:56;;;;;;;8.23;1.50;;;8.10;99.90;;;;;;4978708;28;20026;-95
2022/11/02 08:51:24;;;;;;;11.13;1.75;;;8.20;99.90;;;;;;4994837;28;20106;-95
2022/11/02 08:53:50;;;;;;;13.82;1.42;;;8.30;99.90;;;;;;4995861;28;20027;-93
2022/11/02 08:56:16;;;;;;;10.43;1.65;;;8.40;99.90;;;;;;4997000;28;20034;-94
2022/11/02 08:58:41;;;;;;;14.35;2.55;;;8.40;99.90;;;;;;4993600;28;20021;-94
2022/11/02 09:01:07;;;;;;;13.88;1.90;;;8.50;99.90;;;;;;4995320;28;20031;-94
2022/11/02 09:03:32;;;;;;;8.65;1.00;;;8.50;99.90;;;;;;4991579;28;20061;-93
2022/11/02 09:06:00;;;;;;;10.65;1.67;;;8.60;99.90;;;;;;4997665;28;20053;-93
2022/11/02 09:08:26;;;;;;;14.23;1.73;;;8.60;99.90;;;;;;4988346;28;20094;-96
2022/11/02 09:10:52;;;;;;;11.15;1.30;;;8.70;99.90;;;;;;4995370;28;20019;-96
2022/11/02 09:13:23;;;;;;;9.70;2.28;;;8.70;99.90;;;;;;4997001;28;20026;-93
2022/11/02 09:15:52;;;;;;;19.67;2.13;;;8.70;99.90;;;;;;4991799;28;20034;-95
2022/11/02 09:18:19;;;;;;;4.60;1.27;;;8.80;99.90;;;;;;4992494;28;20539;-91
2022/11/02 09:20:45;;;;;;;14.80;2.13;;;8.80;99.90;;;;;;4991445;28;20026;-95
2022/11/02 09:23:11;;;;;;;14.40;1.35;;;8.80;99.90;;;;;;4986297;28;20113;-94
2022/11/02 09:25:37;;;;;;;10.52;1.30;;;8.80;99.90;;;;;;4984350;28;20057;-92
2022/11/02 09:28:03;;;;;;;11.80;1.52;;;8.90;99.90;;;;;;4984441;28;20023;-95
2022/11/02 09:30:28;;;;;;;15.85;3.05;;;8.90;99.90;;;;;;4986433;28;20027;-94
2022/11/02 09:32:55;;;;;;;12.95;1.83;;;8.90;99.90;;;;;;4990305;28;20425;-96
2022/11/02 09:35:21;;;;;;;10.93;1.40;;;8.90;99.90;;;;;;4998783;28;20019;-94
2022/11/02 09:37:47;;;;;;;10.00;1.40;;;9.00;99.90;;;;;;4996804;28;20045;-95
2022/11/02 09:40:15;;;;;;;12.65;1.63;;;9.00;99.90;;;;;;5000634;28;20027;-95
2022/11/02 09:42:54;;;;;;;9.02;1.58;;;9.10;99.90;;;;;;5016409;28;20030;-94
2022/11/02 09:45:20;;;;;;;8.80;1.30;;;9.10;99.90;;;;;;4996599;28;20507;-94
2022/11/02 09:48:18;;;;;;;11.05;1.33;;;9.10;99.90;;;;;;4994360;28;20034;-96
2022/11/02 09:50:55;;;;;;;9.32;2.63;;;9.10;99.90;;;;;;4996068;28;20086;-96
2022/11/02 09:53:31;;;;;;;13.00;1.35;;;9.20;99.90;;;;;;4996717;28;20037;-94
2022/11/02 09:56:00;;;;;;;10.60;1.50;;;9.20;99.90;;;;;;5011301;28;20031;-95
2022/11/02 09:58:38;;;;;;;12.65;1.85;;;9.20;99.90;;;;;;4997196;28;20025;-96
2022/11/02 10:01:27;;;;;;;12.60;1.50;;;9.20;99.90;;;;;;4994461;28;20045;-95
2022/11/02 10:04:17;;;;;;;11.93;1.50;;;9.20;99.90;;;;;;5000274;28;20089;-95
2022/11/02 10:06:51;;;;;;;9.77;1.60;;;9.30;99.90;;;;;;4997810;28;20069;-94
2022/11/02 10:09:25;;;;;;;8.23;1.50;;;9.40;99.90;;;;;;5000052;28;20031;-94
2022/11/02 10:12:08;;;;;;;8.10;1.55;;;9.50;99.90;;;;;;5018930;28;20014;-93
2022/11/02 10:14:37;;;;;;;10.77;1.60;;;9.50;99.90;;;;;;4994025;28;20050;-94
2022/11/02 10:17:21;;;;;;;8.93;1.20;;;9.50;99.90;;;;;;4995383;28;20129;-94
2022/11/02 10:20:01;;;;;;;10.73;1.35;;;9.50;99.90;;;;;;4997981;28;20492;-95
2022/11/02 10:22:36;;;;;;;10.40;1.95;;;9.50;99.90;;;;;;4999348;28;20062;-92
2022/11/02 10:25:05;;;;;;;9.43;2.20;;;9.50;99.90;;;;;;5003414;28;20014;-94
2022/11/02 10:27:37;;;;;;;16.65;2.45;;;9.50;99.90;;;;;;5003727;28;20034;-90
2022/11/02 10:30:20;;;;;;;10.23;2.00;;;9.50;99.90;;;;;;4985460;28;20026;-95
2022/11/02 10:32:52;;;;;;;15.52;2.33;;;9.60;99.90;;;;;;5001185;28;20010;-92
2022/11/02 10:35:43;;;;;;;9.85;1.70;;;9.60;99.90;;;;;;5018380;28;20030;-92
2022/11/02 10:39:03;;;;;;;5.70;0.90;;;9.60;99.90;;;;;;5001695;28;20029;-93
2022/11/02 10:42:01;;;;;;;4.53;0.95;;;9.60;99.90;;;;;;4924246;29;20268;-91
2022/11/02 10:44:52;;;;;;;18.17;3.03;;;9.60;99.90;;;;;;4925472;28;20024;-92
2022/11/02 10:47:21;;;;;;;16.45;2.63;;;9.60;99.90;;;;;;4926490;28;20085;-94
2022/11/02 10:50:14;;;;;;;11.48;2.25;;;9.60;99.90;;;;;;4924600;28;20028;-93
2022/11/02 10:52:44;;;;;;;20.73;2.28;;;9.60;99.90;;;;;;4917603;29;20036;-95
2022/11/02 10:55:28;;;;;;;22.90;2.08;;;9.70;99.90;;;;;;4918098;28;20016;-95
2022/11/02 10:58:02;;;;;;;15.57;2.05;;;9.70;99.90;;;;;;4921022;29;20083;-93
2022/11/02 11:00:31;;;;;;;16.13;2.35;;;9.70;99.90;;;;;;4914928;29;20071;-96
2022/11/02 11:03:17;;;;;;;15.10;2.47;;;9.70;99.90;;;;;;4915998;29;20104;-95
2022/11/02 11:05:48;;;;;;;15.35;2.05;;;9.70;99.90;;;;;;4920899;28;20024;-90
2022/11/02 11:08:29;;;;;;;12.25;1.98;;;9.70;99.90;;;;;;4939136;28;20041;-94
2022/11/02 11:11:08;;;;;;;18.70;3.25;;;9.70;99.90;;;;;;4916477;29;20434;-94
2022/11/02 11:13:34;;;;;;;12.95;1.52;;;9.80;99.90;;;;;;4933000;29;20047;-95
2022/11/02 11:16:00;;;;;;;19.63;2.67;;;9.80;99.90;;;;;;4983604;28;20094;-95
2022/11/02 11:18:25;;;;;;;12.75;1.80;;;9.80;99.90;;;;;;4977785;28;20022;-95
2022/11/02 11:20:54;;;;;;;10.73;1.80;;;9.80;99.90;;;;;;4990943;28;20038;-93
2022/11/02 11:23:24;;;;;;;10.88;1.75;;;9.90;99.90;;;;;;4992316;28;20025;-94
2022/11/02 11:26:02;;;;;;;21.27;3.45;;;9.90;99.90;;;;;;4992957;28;20085;-95
2022/11/02 11:28:31;;;;;;;19.65;2.33;;;9.90;99.90;;;;;;4994117;28;20018;-95
2022/11/02 11:31:16;;;;;;;15.75;1.83;;;9.90;99.90;;;;;;4994153;28;20483;-93
2022/11/02 11:34:21;;;;;;;13.20;2.10;;;9.90;99.90;;;;;;5012093;28;20018;-93
2022/11/02 11:36:47;;;;;;;21.42;2.33;;;9.90;99.90;;;;;;4981814;28;20587;-93
2022/11/02 11:39:26;;;;;;;16.73;2.03;;;9.90;99.90;;;;;;4996690;28;20026;-93
2022/11/02 11:41:52;;;;;;;14.45;2.53;;;10.00;99.90;;;;;;4998742;28;20034;-96
2022/11/02 11:44:19;;;;;;;16.80;2.55;;;10.00;99.90;;;;;;4997071;28;20090;-95
2022/11/02 11:46:52;;;;;;;15.93;2.30;;;10.00;99.90;;;;;;4997206;28;20052;-94
2022/11/02 11:49:25;;;;;;;12.98;1.98;;;10.10;99.90;;;;;;4995498;28;20022;-95
2022/11/02 11:51:53;;;;;;;21.52;2.33;;;10.10;99.90;;;;;;4999205;28;20026;-94
2022/11/02 11:54:29;;;;;;;15.52;2.28;;;10.10;99.90;;;;;;4997376;28;20089;-95
2022/11/02 11:56:57;;;;;;;22.20;2.80;;;10.10;99.90;;;;;;4998640;28;20038;-94
2022/11/02 11:59:25;;;;;;;15.77;1.83;;;10.20;99.90;;;;;;4996520;28;20085;-95
2022/11/02 12:01:59;;;;;;;12.73;2.00;;;10.20;99.90;;;;;;4995152;28;20057;-93
2022/11/02 12:04:33;;;;;;;13.15;1.88;;;10.20;99.90;;;;;;4995681;28;20118;-94
2022/11/02 12:07:14;;;;;;;15.80;2.38;;;10.20;99.90;;;;;;4993326;28;20028;-93
2022/11/02 12:09:50;;;;;;;16.38;2.30;;;10.20;99.90;;;;;;4997154;28;20046;-93
2022/11/02 12:12:30;;;;;;;14.68;2.67;;;10.20;99.90;;;;;;4996868;28;20030;-93
2022/11/02 12:15:05;;;;;;;24.58;2.53;;;10.30;99.90;;;;;;4997802;28;20049;-94
2022/11/02 12:17:51;;;;;;;21.55;2.15;;;10.30;99.90;;;;;;4997886;28;20050;-93
2022/11/02 12:20:52;;;;;;;13.82;2.38;;;10.30;99.90;;;;;;4997656;28;20023;-93
2022/11/02 12:23:47;;;;;;;8.43;1.77;;;10.30;99.90;;;;;;4997085;28;20038;-93
2022/11/02 12:26:28;;;;;;;17.73;2.35;;;10.40;99.90;;;;;;5000964;28;20048;-93
2022/11/02 12:29:02;;;;;;;17.17;1.92;;;10.40;99.90;;;;;;4999730;28;20041;-96
2022/11/02 12:31:39;;;;;;;8.70;1.23;;;10.50;99.90;;;;;;5000106;28;20023;-95
2022/11/02 12:34:30;;;;;;;14.95;2.10;;;10.50;99.90;;;;;;4999740;28;20023;-96
2022/11/02 12:37:34;;;;;;;12.32;1.85;;;10.50;99.90;;;;;;4995755;28;20027;-94
2022/11/02 12:40:11;;;;;;;19.92;3.13;;;10.60;99.90;;;;;;4996823;28;20023;-93
2022/11/02 12:43:02;;;;;;;15.57;2.40;;;10.60;99.90;;;;;;4998740;28;20031;-94
2022/11/02 12:45:56;;;;;;;16.15;1.85;;;10.70;99.90;;;;;;4996329;28;20038;-92
2022/11/02 12:48:40;;;;;;;20.40;2.35;;;10.80;99.90;;;;;;4996789;28;20023;-95
2022/11/02 12:51:18;;;;;;;19.05;2.63;;;10.80;99.90;;;;;;4999598;28;20026;-95
2022/11/02 12:53:58;;;;;;;16.10;3.08;;;10.90;99.90;;;;;;4997689;28;20030;-94
2022/11/02 12:56:51;;;;;;;19.20;2.63;;;10.90;99.90;;;;;;4997914;28;20061;-94
2022/11/02 12:59:26;;;;;;;12.63;4.00;;;11.00;99.90;;;;;;4996787;28;20030;-94
2022/11/02 13:02:18;;;;;;;16.58;2.53;;;11.10;99.90;;;;;;4996727;28;20093;-94
2022/11/02 13:05:13;;;;;;;19.00;3.67;;;11.30;99.90;;;;;;4986787;28;20042;-96
2022/11/02 13:07:47;;;;;;;18.67;2.42;;;11.60;99.90;;;;;;4979382;28;20035;-94
2022/11/02 13:10:20;;;;;;;15.10;4.00;;;12.00;99.90;;;;;;4995139;28;20026;-94
2022/11/02 13:12:53;;;;;;;21.17;3.35;;;12.10;99.90;;;;;;4998283;28;20034;-95
2022/11/02 13:15:23;;;;;;;17.83;2.70;;;12.20;99.90;;;;;;5003786;28;20022;-96
2022/11/02 13:18:05;;;;;;;23.08;4.90;;;12.20;99.90;;;;;;5004437;28;20018;-94
2022/11/02 13:20:51;;;;;;;12.98;2.38;;;12.10;99.90;;;;;;5002063;28;20030;-96
2022/11/02 13:23:40;;;;;;;19.58;2.22;;;12.10;99.90;;;;;;5002738;28;20022;-95
2022/11/02 13:26:25;;;;;;;19.02;2.60;;;12.00;99.90;;;;;;5001781;28;20128;-96